Campus, Illinois
Current Conditions -  °F | °C
As of 6:55 AM on Wednesday 26 Nov 2014 (Local Time) from KPNT Reporting Station
Broken Clouds Broken Clouds  
Wind Chill: 12°   Ceiling: 1800
Heat Index: 23°   Visibility: 10mi
Dew Point: 21°   Wind: 12mph
Humidity: 91%   Direction: 120°ESE
Pressure: 30.15"   Gusts: NA
Location:  41.02°N, 88.31°W
Report Text: KPNT 261255Z AUTO 12010KT 10SM BKN018 M05/M06 A3015 RMK AO2 T10481060
Loading
Personal Weather Stations






























Interactive Weather Map New forecast layout! Learn more

10-Day Weather Forecast

Advertisements
Track Severe Weather on mobile